sensor_id;sensor_type;location;lat;lon;timestamp;temperature;humidity
63407;SHT31;49543;45.892;10.838;2023-03-01T10:35:33;9.34;58.66
63407;SHT31;49543;45.892;10.838;2023-03-01T10:38:19;9.39;58.41
63407;SHT31;49543;45.892;10.838;2023-03-01T10:41:04;9.48;58.58
63407;SHT31;49543;45.892;10.838;2023-03-01T10:49:29;9.83;58.41
63407;SHT31;49543;45.892;10.838;2023-03-01T10:57:42;10.11;57.97
63407;SHT31;49543;45.892;10.838;2023-03-01T11:00:28;10.21;57.12
63407;SHT31;49543;45.892;10.838;2023-03-01T11:03:09;10.31;56.80
63407;SHT31;49543;45.892;10.838;2023-03-01T11:05:36;10.34;57.33
63407;SHT31;49543;45.892;10.838;2023-03-01T11:08:01;10.37;57.77
63407;SHT31;49543;45.892;10.838;2023-03-01T11:10:33;10.37;57.72
63407;SHT31;49543;45.892;10.838;2023-03-01T11:13:06;10.30;58.18
63407;SHT31;49543;45.892;10.838;2023-03-01T11:15:32;10.28;58.33
63407;SHT31;49543;45.892;10.838;2023-03-01T11:17:57;10.21;58.41
63407;SHT31;49543;45.892;10.838;2023-03-01T11:22:55;10.11;56.61
63407;SHT31;49543;45.892;10.838;2023-03-01T11:25:25;10.08;56.46
63407;SHT31;49543;45.892;10.838;2023-03-01T11:27:51;10.04;57.54
63407;SHT31;49543;45.892;10.838;2023-03-01T11:30:24;10.04;58.99
63407;SHT31;49543;45.892;10.838;2023-03-01T11:35:20;10.01;59.60
63407;SHT31;49543;45.892;10.838;2023-03-01T11:40:32;10.01;60.61
63407;SHT31;49543;45.892;10.838;2023-03-01T11:45:27;10.03;62.06
63407;SHT31;49543;45.892;10.838;2023-03-01T11:58:11;10.25;57.22
63407;SHT31;49543;45.892;10.838;2023-03-01T12:11:57;10.34;58.00
63407;SHT31;49543;45.892;10.838;2023-03-01T12:15:00;10.41;58.35
63407;SHT31;49543;45.892;10.838;2023-03-01T12:25:16;10.24;63.75
63407;SHT31;49543;45.892;10.838;2023-03-01T12:35:23;9.72;67.80
63407;SHT31;49543;45.892;10.838;2023-03-01T12:40:46;9.49;67.25
63407;SHT31;49543;45.892;10.838;2023-03-01T17:19:42;8.74;74.91
63407;SHT31;49543;45.892;10.838;2023-03-01T17:22:09;8.74;74.94
63407;SHT31;49543;45.892;10.838;2023-03-01T17:24:35;8.80;74.08
63407;SHT31;49543;45.892;10.838;2023-03-01T17:27:01;8.76;74.04
63407;SHT31;49543;45.892;10.838;2023-03-01T17:29:27;8.81;73.94
63407;SHT31;49543;45.892;10.838;2023-03-01T17:31:52;8.74;74.55
63407;SHT31;49543;45.892;10.838;2023-03-01T17:34:19;8.79;78.34
63407;SHT31;49543;45.892;10.838;2023-03-01T17:36:45;8.77;78.12
63407;SHT31;49543;45.892;10.838;2023-03-01T17:39:12;8.84;78.13
63407;SHT31;49543;45.892;10.838;2023-03-01T17:41:37;8.70;78.79
63407;SHT31;49543;45.892;10.838;2023-03-01T17:44:02;8.62;80.27
63407;SHT31;49543;45.892;10.838;2023-03-01T17:46:28;8.55;81.03
63407;SHT31;49543;45.892;10.838;2023-03-01T17:48:53;8.55;80.84
63407;SHT31;49543;45.892;10.838;2023-03-01T17:51:19;8.52;81.75
63407;SHT31;49543;45.892;10.838;2023-03-01T17:53:44;8.49;81.98
63407;SHT31;49543;45.892;10.838;2023-03-01T17:56:10;8.35;81.67
63407;SHT31;49543;45.892;10.838;2023-03-01T17:58:35;8.32;82.06
63407;SHT31;49543;45.892;10.838;2023-03-01T18:01:06;8.36;81.98
63407;SHT31;49543;45.892;10.838;2023-03-01T18:03:32;8.34;82.31
63407;SHT31;49543;45.892;10.838;2023-03-01T18:05:57;8.29;82.46
63407;SHT31;49543;45.892;10.838;2023-03-01T18:08:22;8.42;82.12
63407;SHT31;49543;45.892;10.838;2023-03-01T18:10:47;8.34;82.53
63407;SHT31;49543;45.892;10.838;2023-03-01T18:13:13;8.35;82.83
63407;SHT31;49543;45.892;10.838;2023-03-01T18:15:39;8.29;83.59
63407;SHT31;49543;45.892;10.838;2023-03-01T18:18:04;8.26;83.18
63407;SHT31;49543;45.892;10.838;2023-03-01T18:20:29;8.22;83.68
63407;SHT31;49543;45.892;10.838;2023-03-01T18:22:56;8.18;83.87
63407;SHT31;49543;45.892;10.838;2023-03-01T18:25:22;8.21;83.64
63407;SHT31;49543;45.892;10.838;2023-03-01T18:27:47;8.31;83.83
63407;SHT31;49543;45.892;10.838;2023-03-01T18:30:13;8.21;84.54
63407;SHT31;49543;45.892;10.838;2023-03-01T18:32:38;8.18;84.86
63407;SHT31;49543;45.892;10.838;2023-03-01T18:35:04;8.20;84.91
63407;SHT31;49543;45.892;10.838;2023-03-01T18:37:30;8.17;85.48
63407;SHT31;49543;45.892;10.838;2023-03-01T18:39:55;8.14;85.62
63407;SHT31;49543;45.892;10.838;2023-03-01T18:42:20;8.01;86.33
63407;SHT31;49543;45.892;10.838;2023-03-01T18:44:46;7.95;86.77
63407;SHT31;49543;45.892;10.838;2023-03-01T18:47:12;7.98;86.60
63407;SHT31;49543;45.892;10.838;2023-03-01T18:49:37;7.99;86.39
63407;SHT31;49543;45.892;10.838;2023-03-01T18:52:03;8.05;86.36
63407;SHT31;49543;45.892;10.838;2023-03-01T18:54:28;8.01;86.81
63407;SHT31;49543;45.892;10.838;2023-03-01T18:56:53;8.07;86.82
63407;SHT31;49543;45.892;10.838;2023-03-01T18:59:19;8.07;86.97
63407;SHT31;49543;45.892;10.838;2023-03-01T19:01:44;8.11;86.93
63407;SHT31;49543;45.892;10.838;2023-03-01T19:04:10;8.12;86.97
63407;SHT31;49543;45.892;10.838;2023-03-01T19:06:35;8.18;87.30
63407;SHT31;49543;45.892;10.838;2023-03-01T19:09:01;8.25;87.36
63407;SHT31;49543;45.892;10.838;2023-03-01T19:11:26;8.26;87.38
63407;SHT31;49543;45.892;10.838;2023-03-01T19:13:54;8.24;87.80
63407;SHT31;49543;45.892;10.838;2023-03-01T19:16:21;8.17;88.49
63407;SHT31;49543;45.892;10.838;2023-03-01T19:18:47;8.15;88.77
63407;SHT31;49543;45.892;10.838;2023-03-01T19:21:20;8.18;89.36
63407;SHT31;49543;45.892;10.838;2023-03-01T19:23:45;8.20;89.55
63407;SHT31;49543;45.892;10.838;2023-03-01T19:26:13;8.17;89.67
63407;SHT31;49543;45.892;10.838;2023-03-01T19:28:39;8.15;89.71
63407;SHT31;49543;45.892;10.838;2023-03-01T19:31:05;8.12;89.90
63407;SHT31;49543;45.892;10.838;2023-03-01T19:33:31;8.09;90.06
63407;SHT31;49543;45.892;10.838;2023-03-01T19:35:57;8.09;90.34
63407;SHT31;49543;45.892;10.838;2023-03-01T19:38:23;8.09;90.73
63407;SHT31;49543;45.892;10.838;2023-03-01T19:40:49;8.04;90.90
63407;SHT31;49543;45.892;10.838;2023-03-01T19:43:14;8.04;91.08
63407;SHT31;49543;45.892;10.838;2023-03-01T19:45:39;8.07;91.14
63407;SHT31;49543;45.892;10.838;2023-03-01T19:48:05;8.01;91.15
63407;SHT31;49543;45.892;10.838;2023-03-01T19:50:30;7.99;91.22
63407;SHT31;49543;45.892;10.838;2023-03-01T19:52:56;7.99;91.36
63407;SHT31;49543;45.892;10.838;2023-03-01T19:55:21;7.99;91.45
63407;SHT31;49543;45.892;10.838;2023-03-01T19:57:46;7.98;91.45
63407;SHT31;49543;45.892;10.838;2023-03-01T20:00:12;8.01;91.51
63407;SHT31;49543;45.892;10.838;2023-03-01T20:02:37;8.02;91.50
63407;SHT31;49543;45.892;10.838;2023-03-01T20:05:02;8.07;91.55
63407;SHT31;49543;45.892;10.838;2023-03-01T20:07:28;8.09;91.50
63407;SHT31;49543;45.892;10.838;2023-03-01T20:09:53;8.08;91.51
63407;SHT31;49543;45.892;10.838;2023-03-01T20:12:18;8.04;91.62
63407;SHT31;49543;45.892;10.838;2023-03-01T20:14:44;8.07;91.64
63407;SHT31;49543;45.892;10.838;2023-03-01T20:17:10;8.09;91.64
63407;SHT31;49543;45.892;10.838;2023-03-01T20:19:35;8.09;91.61
63407;SHT31;49543;45.892;10.838;2023-03-01T20:22:00;8.08;91.63
63407;SHT31;49543;45.892;10.838;2023-03-01T20:24:27;8.07;91.67
63407;SHT31;49543;45.892;10.838;2023-03-01T20:26:53;8.04;91.68
63407;SHT31;49543;45.892;10.838;2023-03-01T20:29:18;8.01;91.79
63407;SHT31;49543;45.892;10.838;2023-03-01T20:31:44;7.97;91.93
63407;SHT31;49543;45.892;10.838;2023-03-01T20:34:09;7.95;92.04
63407;SHT31;49543;45.892;10.838;2023-03-01T20:36:35;7.97;92.07
63407;SHT31;49543;45.892;10.838;2023-03-01T20:39:02;7.95;92.09
63407;SHT31;49543;45.892;10.838;2023-03-01T20:41:28;7.99;92.08
63407;SHT31;49543;45.892;10.838;2023-03-01T20:43:53;7.99;92.04
63407;SHT31;49543;45.892;10.838;2023-03-01T20:46:21;7.99;92.05
63407;SHT31;49543;45.892;10.838;2023-03-01T20:48:48;7.95;92.11
63407;SHT31;49543;45.892;10.838;2023-03-01T20:51:14;7.95;92.02
63407;SHT31;49543;45.892;10.838;2023-03-01T20:53:39;7.97;91.82
63407;SHT31;49543;45.892;10.838;2023-03-01T20:56:06;8.01;91.63
63407;SHT31;49543;45.892;10.838;2023-03-01T20:58:31;7.95;91.57
63407;SHT31;49543;45.892;10.838;2023-03-01T21:00:58;7.98;91.66
63407;SHT31;49543;45.892;10.838;2023-03-01T21:03:23;7.93;91.20
63407;SHT31;49543;45.892;10.838;2023-03-01T21:05:48;7.90;91.33
63407;SHT31;49543;45.892;10.838;2023-03-01T21:08:14;7.87;91.48
63407;SHT31;49543;45.892;10.838;2023-03-01T21:10:49;7.84;91.64
63407;SHT31;49543;45.892;10.838;2023-03-01T21:13:15;7.86;91.60
63407;SHT31;49543;45.892;10.838;2023-03-01T21:15:40;7.83;91.63
63407;SHT31;49543;45.892;10.838;2023-03-01T21:18:05;7.86;91.64
63407;SHT31;49543;45.892;10.838;2023-03-01T21:20:31;7.87;91.77
63407;SHT31;49543;45.892;10.838;2023-03-01T21:22:56;7.86;91.83
63407;SHT31;49543;45.892;10.838;2023-03-01T21:25:21;7.90;91.82
63407;SHT31;49543;45.892;10.838;2023-03-01T21:27:47;7.87;91.91
63407;SHT31;49543;45.892;10.838;2023-03-01T21:30:12;7.84;92.11
63407;SHT31;49543;45.892;10.838;2023-03-01T21:32:37;7.81;92.30
63407;SHT31;49543;45.892;10.838;2023-03-01T21:35:03;7.81;92.22
63407;SHT31;49543;45.892;10.838;2023-03-01T21:37:28;7.84;92.22
63407;SHT31;49543;45.892;10.838;2023-03-01T21:39:53;7.88;92.19
63407;SHT31;49543;45.892;10.838;2023-03-01T21:42:19;7.90;92.18
63407;SHT31;49543;45.892;10.838;2023-03-01T21:44:44;7.94;92.15
63407;SHT31;49543;45.892;10.838;2023-03-01T21:47:09;7.91;92.10
63407;SHT31;49543;45.892;10.838;2023-03-01T21:49:38;7.97;92.08
63407;SHT31;49543;45.892;10.838;2023-03-01T21:52:04;7.97;92.00
63407;SHT31;49543;45.892;10.838;2023-03-01T21:54:29;7.94;91.90
63407;SHT31;49543;45.892;10.838;2023-03-01T21:56:54;7.91;91.99
63407;SHT31;49543;45.892;10.838;2023-03-01T21:59:20;7.91;92.02
63407;SHT31;49543;45.892;10.838;2023-03-01T22:01:46;7.87;91.98
63407;SHT31;49543;45.892;10.838;2023-03-01T22:04:12;7.87;91.93
63407;SHT31;49543;45.892;10.838;2023-03-01T22:06:38;7.91;91.28
63407;SHT31;49543;45.892;10.838;2023-03-01T22:12:00;7.76;92.21
63407;SHT31;49543;45.892;10.838;2023-03-01T22:14:29;7.74;92.19
63407;SHT31;49543;45.892;10.838;2023-03-01T22:16:54;7.77;92.18
63407;SHT31;49543;45.892;10.838;2023-03-01T22:19:20;7.80;92.24
63407;SHT31;49543;45.892;10.838;2023-03-01T22:21:47;7.81;92.22
63407;SHT31;49543;45.892;10.838;2023-03-01T22:24:14;7.84;92.22
63407;SHT31;49543;45.892;10.838;2023-03-01T22:26:40;7.81;92.29
63407;SHT31;49543;45.892;10.838;2023-03-01T22:29:07;7.77;92.42
63407;SHT31;49543;45.892;10.838;2023-03-01T22:31:33;7.81;92.44
63407;SHT31;49543;45.892;10.838;2023-03-01T22:33:58;7.79;92.43
63407;SHT31;49543;45.892;10.838;2023-03-01T22:36:24;7.81;92.44
63407;SHT31;49543;45.892;10.838;2023-03-01T22:38:49;7.81;92.41
63407;SHT31;49543;45.892;10.838;2023-03-01T22:41:22;7.80;92.43
63407;SHT31;49543;45.892;10.838;2023-03-01T22:43:48;7.77;92.53
63407;SHT31;49543;45.892;10.838;2023-03-01T22:46:14;7.80;92.59
63407;SHT31;49543;45.892;10.838;2023-03-01T22:48:40;7.83;91.85
63407;SHT31;49543;45.892;10.838;2023-03-01T22:51:05;7.74;92.22
63407;SHT31;49543;45.892;10.838;2023-03-01T22:53:31;7.63;92.80
63407;SHT31;49543;45.892;10.838;2023-03-01T22:55:56;7.65;93.00
63407;SHT31;49543;45.892;10.838;2023-03-01T22:58:21;7.66;92.54
63407;SHT31;49543;45.892;10.838;2023-03-01T23:00:47;7.65;92.60
63407;SHT31;49543;45.892;10.838;2023-03-01T23:03:12;7.69;92.59
